Mc Comb/Pike County/John E Lewis Field
KMCB : now visible

Airfield :











YOU CAN JOIN US ON...

 
LOGIN :

Register | Disclaimer

   EN    FR    IT 

 









Legend :    VFR   Marginal VFR   IFR   Intensive IFR   Very Intensive IFR
Visi :
Ceiling :
>= 8 km
>= 3000ft
5 to 8 km
1000 to 3000 ft
1500m to 5 km
500 to 1000 ft
800 to 1500m
200 to 500 ft
< 800m
< 200 ft
Symbols :   Thunderstorms  Fog  Heavy snow  Heavy precipitations  Wind > 20 kt






- Airport Elevation : 413 ft


KMCB - Mc Comb/Pike County/John E Lewis Field

CURRENT METAR :
  • 231753Z AUTO 00000KT 10SM FEW025 31/24 A3006 RMK AO2 SLP173 60001 T03060244 10311 20228 58002

EXPIRED METARs :
  • 231653Z AUTO 00000KT 10SM FEW019 BKN049 29/24 A3007 RMK AO2 SLP178 T02940239
  • 231637Z AUTO 00000KT 10SM SCT015 OVC049 28/24 A3007 RMK AO2 T02830244
  • 231602Z AUTO 22003KT 10SM SCT013 OVC020 28/24 A3007 RMK AO2 T02780244
  • 231553Z AUTO 00000KT 10SM BKN011 BKN018 27/24 A3007 RMK AO2 SLP178 T02720244
  • 231543Z AUTO 16005KT 10SM OVC011 27/24 A3007 RMK AO2 T02670239
  • 231522Z AUTO VRB03KT 10SM BKN009 OVC014 27/24 A3006 RMK AO2 T02670239
  • 231514Z AUTO 05003KT 10SM SCT007 OVC014 27/24 A3007 RMK AO2 T02670239

TAF KMCB
Valid from the 23 at 13:00 until the 24 at 12:00 UTC


231253Z 2313/2412 VRB03KT P6SM BKN005 BKN025
FM231700 VRB03KT P6SM VCSH BKN025 BKN045
FM240100 00000KT P6SM BKN060
FM241000 00000KT 5SM BR BKN010
KZHU FIR / North America



MET'MAP, your aeronautical weather chart ! - Copyright ORBIFLY December 2007 - Disclaimer

ORBIFLY MET'MAP TEAM :

Programming & Development : Alexandra Zaïnal
Concept & original design : Baudouin d'Aumeries
Assistance for programming : Marc-Olivier Méhu
Technical & hardware support : Manuel Goepfert

Contact : metmap@orbifly.com




SOURCES & CREDITS :

   NOAA       Earth
Advisory